createdAt,value
2022-10-04T00:01:45.083Z,9.33
2022-10-04T00:04:22.082Z,9.67
2022-10-04T00:07:08.315Z,9.47
2022-10-04T00:09:46.123Z,9.03
2022-10-04T00:12:29.776Z,8.73
2022-10-04T00:15:01.026Z,9.63
2022-10-04T00:17:31.774Z,10.73
2022-10-04T00:19:59.137Z,9.10
2022-10-04T00:22:33.337Z,10.07
2022-10-04T00:25:13.603Z,9.40
2022-10-04T00:28:01.385Z,9.40
2022-10-04T00:30:38.456Z,10.60
2022-10-04T00:33:05.352Z,9.03
2022-10-04T00:35:32.090Z,10.37
2022-10-04T00:38:06.477Z,9.47
2022-10-04T00:40:36.496Z,8.80
2022-10-04T00:43:42.845Z,8.97
2022-10-04T00:46:26.202Z,8.30
2022-10-04T00:48:58.223Z,8.13
2022-10-04T00:51:53.260Z,7.90
2022-10-04T00:54:24.878Z,7.93
2022-10-04T00:56:53.807Z,7.43
2022-10-04T00:59:41.247Z,7.87
2022-10-04T01:02:28.954Z,8.13
2022-10-04T01:05:00.464Z,7.57
2022-10-04T01:07:31.915Z,8.47
2022-10-04T01:10:04.752Z,8.27
2022-10-04T01:12:53.514Z,8.67
2022-10-04T01:15:36.882Z,8.63
2022-10-04T01:18:36.548Z,9.20
2022-10-04T01:21:18.673Z,8.50
2022-10-04T01:23:58.703Z,8.60
2022-10-04T01:26:34.231Z,8.10
2022-10-04T01:29:19.214Z,8.33
2022-10-04T01:31:54.564Z,7.63
2022-10-04T01:34:24.322Z,8.87
2022-10-04T01:36:54.374Z,9.23
2022-10-04T01:39:24.346Z,8.27
2022-10-04T01:42:18.750Z,8.70
2022-10-04T01:44:55.604Z,9.00
2022-10-04T01:47:48.673Z,8.37
2022-10-04T01:50:27.109Z,9.00
2022-10-04T01:53:10.827Z,7.77
2022-10-04T01:55:41.758Z,6.93
2022-10-04T01:58:28.533Z,8.00
2022-10-04T02:01:07.155Z,7.67
2022-10-04T02:03:40.518Z,7.63
2022-10-04T02:06:09.693Z,6.93
2022-10-04T02:08:41.099Z,7.53
2022-10-04T02:11:08.150Z,7.00
2022-10-04T02:13:40.924Z,6.93
2022-10-04T02:16:12.095Z,7.27
2022-10-04T02:18:41.840Z,7.17
2022-10-04T02:21:09.804Z,7.10
2022-10-04T02:23:38.164Z,8.07
2022-10-04T02:26:06.667Z,7.00
2022-10-04T02:28:35.156Z,6.73
2022-10-04T02:31:22.248Z,6.73
2022-10-04T02:33:51.853Z,6.53
2022-10-04T02:36:24.326Z,6.47
2022-10-04T02:38:55.833Z,6.77
2022-10-04T02:41:31.827Z,6.73
2022-10-04T02:44:26.351Z,6.50
2022-10-04T02:47:30.947Z,6.63
2022-10-04T02:50:16.698Z,6.50
2022-10-04T02:52:48.384Z,6.30
2022-10-04T02:55:20.639Z,6.37
2022-10-04T02:57:49.929Z,7.07
2022-10-04T03:00:16.842Z,6.30
2022-10-04T03:03:24.168Z,6.43
2022-10-04T03:06:09.446Z,6.07
2022-10-04T03:08:51.658Z,6.80
2022-10-04T03:11:21.857Z,6.83
2022-10-04T03:13:55.134Z,6.13
2022-10-04T03:16:23.839Z,6.67
2022-10-04T03:18:53.073Z,7.67
2022-10-04T03:21:21.755Z,7.27
2022-10-04T03:23:51.129Z,7.60
2022-10-04T03:26:29.487Z,7.20
2022-10-04T03:28:58.166Z,7.47
2022-10-04T03:31:27.834Z,6.93
2022-10-04T03:33:56.621Z,7.33
2022-10-04T03:36:25.722Z,7.10
2022-10-04T03:38:56.095Z,6.67
2022-10-04T03:41:25.808Z,7.33
2022-10-04T03:43:54.939Z,6.27
2022-10-04T03:46:23.552Z,6.93
2022-10-04T03:48:55.488Z,6.47
2022-10-04T03:51:24.327Z,6.63
2022-10-04T03:53:57.431Z,7.67
2022-10-04T03:56:32.996Z,7.67
2022-10-04T03:59:02.636Z,6.80
2022-10-04T04:01:48.937Z,6.60
2022-10-04T04:04:41.180Z,6.50
2022-10-04T04:07:19.982Z,6.20
2022-10-04T04:10:01.786Z,6.50
2022-10-04T04:12:51.585Z,6.73
2022-10-04T04:15:18.990Z,6.23
2022-10-04T04:17:52.784Z,6.37
2022-10-04T04:20:27.443Z,6.43
2022-10-04T04:23:14.415Z,6.30
2022-10-04T04:25:55.126Z,7.00
2022-10-04T04:28:42.347Z,6.57
2022-10-04T04:31:24.419Z,5.90
2022-10-04T04:34:00.767Z,6.27
2022-10-04T04:36:30.140Z,6.03
2022-10-04T04:39:33.822Z,7.13
2022-10-04T04:42:21.406Z,7.07
2022-10-04T04:44:56.951Z,7.37
2022-10-04T04:47:23.665Z,7.53
2022-10-04T04:49:50.834Z,6.90
2022-10-04T04:52:25.926Z,6.63
2022-10-04T04:54:53.527Z,6.13
2022-10-04T04:57:21.150Z,6.27
2022-10-04T04:59:53.661Z,6.10
2022-10-04T05:02:36.461Z,6.03
2022-10-04T05:05:24.579Z,7.17
2022-10-04T05:08:16.097Z,6.40
2022-10-04T05:11:06.207Z,6.47
2022-10-04T05:13:50.042Z,6.37
2022-10-04T05:16:40.428Z,6.10
2022-10-04T05:19:21.114Z,6.67
2022-10-04T05:21:49.876Z,6.47
2022-10-04T05:24:23.928Z,6.10
2022-10-04T05:26:57.109Z,4.87
2022-10-04T05:29:28.367Z,5.20
2022-10-04T05:32:06.456Z,4.97
2022-10-04T05:34:47.116Z,4.80
2022-10-04T05:37:20.655Z,5.40
2022-10-04T05:40:10.726Z,5.00
2022-10-04T05:42:45.430Z,5.17
2022-10-04T05:45:25.189Z,6.10
2022-10-04T05:47:57.448Z,6.50
2022-10-04T05:50:42.187Z,5.97
2022-10-04T05:53:35.782Z,6.10
2022-10-04T05:56:31.531Z,6.27
2022-10-04T05:59:26.237Z,6.30
2022-10-04T06:02:28.169Z,6.13
2022-10-04T06:05:29.229Z,7.47
2022-10-04T06:08:24.048Z,6.60
2022-10-04T06:11:16.635Z,6.57
2022-10-04T06:13:53.722Z,6.50
2022-10-04T06:16:54.698Z,5.60
2022-10-04T06:19:41.166Z,7.03
2022-10-04T06:22:18.573Z,6.23
2022-10-04T06:24:51.822Z,6.20
2022-10-04T06:27:30.012Z,5.57
2022-10-04T06:30:05.715Z,5.80
2022-10-04T06:32:41.120Z,5.77
2022-10-04T06:35:07.854Z,5.73
2022-10-04T06:37:51.151Z,6.07
2022-10-04T06:40:32.915Z,6.10
2022-10-04T06:43:21.396Z,5.63
2022-10-04T06:46:09.485Z,5.90
2022-10-04T06:49:07.388Z,5.57
2022-10-04T06:51:43.764Z,5.63
2022-10-04T06:54:38.841Z,6.03
2022-10-04T06:57:29.886Z,5.70
2022-10-04T07:00:31.807Z,5.03
2022-10-04T07:03:04.282Z,5.90
2022-10-04T07:05:34.105Z,5.83
2022-10-04T07:08:07.290Z,5.67
2022-10-04T07:10:55.528Z,6.37
2022-10-04T07:13:34.663Z,6.23
2022-10-04T07:16:10.275Z,7.40
2022-10-04T07:19:03.323Z,6.43
2022-10-04T07:21:56.508Z,7.23
2022-10-04T07:24:47.773Z,7.40
2022-10-04T07:27:26.621Z,7.43
2022-10-04T07:29:58.482Z,6.73
2022-10-04T07:32:45.664Z,5.93
2022-10-04T07:35:25.959Z,6.67
2022-10-04T07:38:15.638Z,5.87
2022-10-04T07:41:17.975Z,6.00
2022-10-04T07:43:57.205Z,6.20
2022-10-04T07:46:48.329Z,6.47
2022-10-04T07:49:17.702Z,6.07
2022-10-04T07:52:13.588Z,6.20
2022-10-04T07:54:47.437Z,5.90
2022-10-04T07:57:33.437Z,6.57
2022-10-04T08:00:24.773Z,6.50
2022-10-04T08:03:15.293Z,5.90
2022-10-04T08:05:48.084Z,6.47
2022-10-04T08:08:51.331Z,7.13
2022-10-04T08:11:44.292Z,7.30
2022-10-04T08:14:23.300Z,5.50
2022-10-04T08:16:59.084Z,6.00
2022-10-04T08:19:49.732Z,5.73
2022-10-04T08:22:22.736Z,6.03
2022-10-04T08:25:20.342Z,6.17
2022-10-04T08:28:10.024Z,6.57
2022-10-04T08:31:01.736Z,6.30
2022-10-04T08:33:42.354Z,6.47
2022-10-04T08:36:29.358Z,6.57
2022-10-04T08:38:58.651Z,6.40
2022-10-04T08:41:37.159Z,6.40
2022-10-04T08:44:23.321Z,6.00
2022-10-04T08:47:13.880Z,6.90
2022-10-04T08:50:02.423Z,6.43
2022-10-04T08:52:38.321Z,6.00
2022-10-04T08:55:23.162Z,6.37
2022-10-04T08:58:12.440Z,5.87
2022-10-04T09:00:49.305Z,6.63
2022-10-04T09:03:35.543Z,6.30
2022-10-04T09:06:17.437Z,6.37
2022-10-04T09:09:21.840Z,6.43
2022-10-04T09:12:06.830Z,6.47
2022-10-04T09:15:02.196Z,7.00
2022-10-04T09:17:54.555Z,6.57
2022-10-04T09:20:38.941Z,6.23
2022-10-04T09:23:15.014Z,6.60
2022-10-04T09:25:49.881Z,6.30
2022-10-04T09:28:48.102Z,6.83
2022-10-04T09:31:14.921Z,7.93
2022-10-04T09:34:09.614Z,7.20
2022-10-04T09:36:49.417Z,7.03
2022-10-04T09:39:48.456Z,7.23
2022-10-04T09:42:27.829Z,6.97
2022-10-04T09:45:19.801Z,7.20
2022-10-04T09:47:53.503Z,6.67
2022-10-04T09:50:27.947Z,6.93
2022-10-04T09:53:13.427Z,5.30
2022-10-04T09:56:06.483Z,7.40
2022-10-04T09:58:55.144Z,5.57
2022-10-04T10:01:49.553Z,4.60
2022-10-04T10:04:40.370Z,6.67
2022-10-04T10:07:16.395Z,5.40
2022-10-04T10:10:16.839Z,6.30
2022-10-04T10:13:14.381Z,5.77
2022-10-04T10:15:44.165Z,5.20
2022-10-04T10:18:27.048Z,5.50
2022-10-04T10:21:06.701Z,5.67
2022-10-04T10:23:44.062Z,5.80
2022-10-04T10:26:38.221Z,5.77
2022-10-04T10:29:42.094Z,4.70
2022-10-04T10:32:41.279Z,4.93
2022-10-04T10:35:35.493Z,3.13
2022-10-04T10:38:21.107Z,3.40
2022-10-04T10:41:21.662Z,3.17
2022-10-04T10:44:07.889Z,3.23
2022-10-04T10:47:12.282Z,2.67
2022-10-04T10:49:47.883Z,2.80
2022-10-04T10:52:37.030Z,2.40
2022-10-04T10:55:23.413Z,2.50
2022-10-04T10:57:58.983Z,2.07
2022-10-04T11:01:01.352Z,2.27
2022-10-04T11:04:02.190Z,1.73
2022-10-04T11:06:39.390Z,1.97
2022-10-04T11:09:28.909Z,1.90
2022-10-04T11:12:23.097Z,1.83
2022-10-04T11:15:09.636Z,1.97
2022-10-04T11:17:41.914Z,1.40
2022-10-04T11:20:34.071Z,1.60
2022-10-04T11:23:22.500Z,1.70
2022-10-04T11:25:58.284Z,1.57
2022-10-04T11:28:37.724Z,1.50
2022-10-04T11:31:40.655Z,1.70
2022-10-04T11:34:45.301Z,1.60
2022-10-04T11:37:30.589Z,1.80
2022-10-04T11:40:03.190Z,1.30
2022-10-04T11:43:04.588Z,1.73
2022-10-04T11:45:54.855Z,1.43
2022-10-04T11:48:24.623Z,1.80
2022-10-04T11:51:19.345Z,1.53
2022-10-04T11:54:12.062Z,1.77
2022-10-04T11:56:50.648Z,1.30
2022-10-04T11:59:53.869Z,1.60
2022-10-04T12:02:51.431Z,1.53
2022-10-04T12:05:44.916Z,1.57
2022-10-04T12:08:23.681Z,1.90
2022-10-04T12:11:07.221Z,1.80
2022-10-04T12:13:58.384Z,1.73
2022-10-04T12:16:56.713Z,1.73
2022-10-04T12:19:41.792Z,1.50
2022-10-04T12:22:08.546Z,1.60
2022-10-04T12:24:58.838Z,1.27
2022-10-04T12:27:46.351Z,1.70
2022-10-04T12:30:58.731Z,1.40
2022-10-04T12:33:45.313Z,1.70
2022-10-04T12:36:29.180Z,2.07
2022-10-04T12:39:04.293Z,1.87
2022-10-04T12:42:02.343Z,1.93
2022-10-04T12:44:54.568Z,1.70
2022-10-04T12:47:33.277Z,1.80
2022-10-04T12:50:32.670Z,1.77
2022-10-04T12:53:32.047Z,2.07
2022-10-04T12:56:29.823Z,2.30
2022-10-04T12:59:22.307Z,2.00
2022-10-04T13:02:21.218Z,1.73
2022-10-04T13:04:54.659Z,2.50
2022-10-04T13:07:59.286Z,2.03
2022-10-04T13:10:50.041Z,2.50
2022-10-04T13:13:48.356Z,2.00
2022-10-04T13:19:54.680Z,1.50
2022-10-04T13:22:56.095Z,1.60
2022-10-04T13:25:38.932Z,1.70
2022-10-04T13:28:33.277Z,1.70
2022-10-04T13:31:08.123Z,1.97
2022-10-04T13:33:48.111Z,1.97
2022-10-04T13:36:22.726Z,1.90
2022-10-04T13:39:17.012Z,2.33
2022-10-04T13:41:55.270Z,2.07
2022-10-04T13:44:28.103Z,1.87
2022-10-04T13:46:54.849Z,1.90
2022-10-04T13:49:31.827Z,1.67
2022-10-04T13:52:39.768Z,1.80
2022-10-04T13:55:28.331Z,1.93
2022-10-04T13:58:19.311Z,2.10
2022-10-04T14:01:20.832Z,1.83
2022-10-04T14:03:53.402Z,1.70
2022-10-04T14:06:34.927Z,1.90
2022-10-04T14:09:40.055Z,2.17
2022-10-04T14:12:51.454Z,1.90
2022-10-04T14:16:08.744Z,3.30
2022-10-04T14:19:00.237Z,2.23
2022-10-04T14:21:40.172Z,2.13
2022-10-04T14:24:35.457Z,2.30
2022-10-04T14:27:16.624Z,1.80
2022-10-04T14:30:12.979Z,3.53
2022-10-04T14:33:04.637Z,2.70
2022-10-04T14:35:48.050Z,2.30
2022-10-04T14:38:36.095Z,2.10
2022-10-04T14:41:22.278Z,2.23
2022-10-04T14:44:10.846Z,2.23
2022-10-04T14:47:02.623Z,2.13
2022-10-04T14:50:03.164Z,2.57
2022-10-04T14:52:39.016Z,2.40
2022-10-04T14:55:31.147Z,2.47
2022-10-04T14:58:55.431Z,2.77
2022-10-04T15:01:25.276Z,2.20
2022-10-04T15:04:13.591Z,2.10
2022-10-04T15:06:49.974Z,2.43
2022-10-04T15:09:46.595Z,2.60
2022-10-04T15:13:15.290Z,2.37
2022-10-04T15:16:15.650Z,2.60
2022-10-04T15:19:23.348Z,2.20
2022-10-04T15:21:56.124Z,2.70
2022-10-04T15:24:27.969Z,2.80
2022-10-04T15:27:22.104Z,1.93
2022-10-04T15:30:30.773Z,2.83
2022-10-04T15:33:16.391Z,2.00
2022-10-04T15:35:58.308Z,2.60
2022-10-04T15:39:05.174Z,2.20
2022-10-04T15:41:42.920Z,2.07
2022-10-04T15:44:13.348Z,2.30
2022-10-04T15:47:01.535Z,2.53
2022-10-04T15:49:37.134Z,2.70
2022-10-04T15:52:18.828Z,2.20
2022-10-04T15:55:17.210Z,1.97
2022-10-04T15:57:56.232Z,2.97
2022-10-04T16:00:25.647Z,2.43
2022-10-04T16:03:27.146Z,2.07
2022-10-04T16:06:38.713Z,2.60
2022-10-04T16:09:37.683Z,2.77
2022-10-04T16:12:33.062Z,2.43
2022-10-04T16:15:31.590Z,3.00
2022-10-04T16:18:05.349Z,3.23
2022-10-04T16:20:55.394Z,2.90
2022-10-04T16:23:28.271Z,3.13
2022-10-04T16:26:03.465Z,4.57
2022-10-04T16:28:39.543Z,3.40
2022-10-04T16:31:20.079Z,3.40
2022-10-04T16:34:07.152Z,3.40
2022-10-04T16:36:43.350Z,4.07
2022-10-04T16:39:30.112Z,3.30
2022-10-04T16:42:04.031Z,4.00
2022-10-04T16:45:13.229Z,5.90
2022-10-04T16:48:06.686Z,5.53
2022-10-04T16:51:04.461Z,4.73
2022-10-04T16:53:59.596Z,4.60
2022-10-04T16:56:29.817Z,4.30
2022-10-04T16:59:00.685Z,3.77
2022-10-04T17:02:06.829Z,4.10
2022-10-04T17:04:36.966Z,5.53
2022-10-04T17:07:08.496Z,6.07
2022-10-04T17:09:57.141Z,6.40
2022-10-04T17:12:35.369Z,9.77
2022-10-04T17:15:20.492Z,9.17
2022-10-04T17:17:52.021Z,16.63
2022-10-04T17:20:44.224Z,13.17
2022-10-04T17:23:30.171Z,9.00
2022-10-04T17:26:17.015Z,6.20
2022-10-04T17:29:04.000Z,9.63
2022-10-04T17:31:48.645Z,7.60
2022-10-04T17:34:43.295Z,8.77
2022-10-04T17:37:28.698Z,6.90
2022-10-04T17:40:13.437Z,5.97
2022-10-04T17:42:48.893Z,8.73
2022-10-04T17:45:54.147Z,8.73
2022-10-04T17:49:00.459Z,8.77
2022-10-04T17:52:13.304Z,8.53
2022-10-04T17:55:01.438Z,8.50
2022-10-04T17:57:41.261Z,8.67
2022-10-04T18:00:15.710Z,8.47
2022-10-04T18:03:04.450Z,8.93
2022-10-04T18:05:46.524Z,10.07
2022-10-04T18:08:39.403Z,9.47
2022-10-04T18:11:17.753Z,9.07
2022-10-04T18:13:47.522Z,9.80
2022-10-04T18:16:44.239Z,10.40
2022-10-04T18:19:36.067Z,10.90
2022-10-04T18:22:10.374Z,12.03
2022-10-04T18:24:37.187Z,11.20
2022-10-04T18:27:18.636Z,18.83
2022-10-04T18:30:11.333Z,17.10
2022-10-04T18:32:38.452Z,16.27
2022-10-04T18:35:49.818Z,14.87
2022-10-04T18:38:28.383Z,30.50
2022-10-04T18:41:20.498Z,64.17
2022-10-04T18:43:51.827Z,22.97
2022-10-04T18:46:22.913Z,19.13
2022-10-04T18:49:07.712Z,17.50
2022-10-04T18:51:40.229Z,58.97
2022-10-04T18:54:31.391Z,17.83
2022-10-04T18:57:07.988Z,17.17
2022-10-04T19:00:11.441Z,15.87
2022-10-04T19:02:50.881Z,12.90
2022-10-04T19:05:24.096Z,13.63
2022-10-04T19:08:15.577Z,30.70
2022-10-04T19:10:51.085Z,45.87
2022-10-04T19:13:40.992Z,14.57
2022-10-04T19:16:45.821Z,15.70
2022-10-04T19:19:23.051Z,12.33
2022-10-04T19:22:00.911Z,14.63
2022-10-04T19:25:00.445Z,12.17
2022-10-04T19:27:36.304Z,10.97
2022-10-04T19:30:22.748Z,11.83
2022-10-04T19:33:18.322Z,12.43
2022-10-04T19:35:47.808Z,11.50
2022-10-04T19:38:24.420Z,12.17
2022-10-04T19:40:58.119Z,10.70
2022-10-04T19:43:51.340Z,10.13
2022-10-04T19:46:20.965Z,10.50
2022-10-04T19:48:50.726Z,10.23
2022-10-04T19:51:31.170Z,9.80
2022-10-04T19:54:04.703Z,9.93
2022-10-04T19:56:36.085Z,10.70
2022-10-04T19:59:09.298Z,10.40
2022-10-04T20:01:36.542Z,10.60
2022-10-04T20:04:31.390Z,11.27
2022-10-04T20:07:00.099Z,11.10
2022-10-04T20:09:54.582Z,10.93
2022-10-04T20:12:37.266Z,10.90
2022-10-04T20:15:14.867Z,10.13
2022-10-04T20:17:43.219Z,11.77
2022-10-04T20:20:13.921Z,12.10
2022-10-04T20:22:49.442Z,13.60
2022-10-04T20:25:43.912Z,17.43
2022-10-04T20:28:30.729Z,29.57
2022-10-04T20:31:00.149Z,35.93
2022-10-04T20:33:46.700Z,18.97
2022-10-04T20:36:48.971Z,19.37
2022-10-04T20:39:40.888Z,18.23
2022-10-04T20:42:37.405Z,17.80
2022-10-04T20:45:10.233Z,16.97
2022-10-04T20:47:52.487Z,18.13
2022-10-04T20:50:43.276Z,18.13
2022-10-04T20:53:21.201Z,16.50
2022-10-04T20:55:49.082Z,14.47
2022-10-04T20:58:28.489Z,14.47
2022-10-04T21:00:58.578Z,13.87
2022-10-04T21:03:25.874Z,13.73
2022-10-04T21:06:10.320Z,12.93
2022-10-04T21:08:38.705Z,11.80
2022-10-04T21:11:16.780Z,11.87
2022-10-04T21:13:57.043Z,11.73
2022-10-04T21:16:47.111Z,11.50
2022-10-04T21:19:30.404Z,10.80
2022-10-04T21:21:59.161Z,10.57
2022-10-04T21:24:38.542Z,10.40
2022-10-04T21:27:08.866Z,10.50
2022-10-04T21:29:35.866Z,11.07
2022-10-04T21:32:02.838Z,10.93
2022-10-04T21:34:51.831Z,10.93
2022-10-04T21:37:17.384Z,11.23
2022-10-04T21:39:45.015Z,11.73
2022-10-04T21:42:12.121Z,13.77
2022-10-04T21:44:39.097Z,19.30
2022-10-04T21:47:05.897Z,24.47
2022-10-04T21:49:32.722Z,19.13
2022-10-04T21:51:59.474Z,21.07
2022-10-04T21:54:26.286Z,17.07
2022-10-04T21:56:56.189Z,17.53
2022-10-04T21:59:23.015Z,16.10
2022-10-04T22:01:49.910Z,17.43
2022-10-04T22:04:16.748Z,16.63
2022-10-04T22:06:44.165Z,13.90
2022-10-04T22:09:11.618Z,11.93
2022-10-04T22:11:38.516Z,11.27
2022-10-04T22:14:05.403Z,11.03
2022-10-04T22:16:32.376Z,10.00
2022-10-04T22:18:59.282Z,10.53
2022-10-04T22:21:26.114Z,10.03
2022-10-04T22:23:52.983Z,9.83
2022-10-04T22:26:22.305Z,10.87
2022-10-04T22:28:55.009Z,10.03
2022-10-04T22:31:26.234Z,10.73
2022-10-04T22:33:54.285Z,11.70
2022-10-04T22:36:33.682Z,10.43
2022-10-04T22:39:09.575Z,10.53
2022-10-04T22:41:39.635Z,10.83
2022-10-04T22:44:20.204Z,12.27
2022-10-04T22:46:59.367Z,11.57
2022-10-04T22:49:32.040Z,10.90
2022-10-04T22:52:01.817Z,10.80
2022-10-04T22:54:36.352Z,10.37
2022-10-04T22:57:03.220Z,10.90
2022-10-04T22:59:44.151Z,9.70
2022-10-04T23:02:15.858Z,9.73
2022-10-04T23:04:54.690Z,9.17
2022-10-04T23:07:21.993Z,9.90
2022-10-04T23:09:49.183Z,9.80
2022-10-04T23:12:16.057Z,9.90
2022-10-04T23:14:42.865Z,9.43
2022-10-04T23:17:18.345Z,10.27
2022-10-04T23:19:45.113Z,9.40
2022-10-04T23:22:17.912Z,10.20
2022-10-04T23:24:44.778Z,9.60
2022-10-04T23:27:17.363Z,9.43
2022-10-04T23:29:46.719Z,9.53
2022-10-04T23:32:15.994Z,9.30
2022-10-04T23:34:46.247Z,10.20
2022-10-04T23:37:25.333Z,8.93
2022-10-04T23:39:52.180Z,8.70
2022-10-04T23:42:21.486Z,8.23
2022-10-04T23:44:50.686Z,7.93
2022-10-04T23:47:22.332Z,9.00
2022-10-04T23:49:52.140Z,9.70
2022-10-04T23:52:31.593Z,9.63
2022-10-04T23:54:58.373Z,9.03
2022-10-04T23:57:27.965Z,8.90
2022-10-04T23:59:55.208Z,9.10
